createdAt,value
2024-05-09T00:01:18.291Z,9.30
2024-05-09T00:03:49.883Z,9.24
2024-05-09T00:06:22.375Z,9.17
2024-05-09T00:08:53.934Z,9.10
2024-05-09T00:11:24.349Z,9.02
2024-05-09T00:13:56.084Z,8.93
2024-05-09T00:16:26.335Z,8.88
2024-05-09T00:18:57.983Z,8.81
2024-05-09T00:21:28.104Z,8.74
2024-05-09T00:23:59.554Z,8.68
2024-05-09T00:26:30.252Z,8.62
2024-05-09T00:29:01.946Z,8.57
2024-05-09T00:31:31.972Z,8.53
2024-05-09T00:34:03.883Z,8.49
2024-05-09T00:36:34.248Z,8.43
2024-05-09T00:39:05.605Z,8.38
2024-05-09T00:41:35.922Z,8.33
2024-05-09T00:44:08.787Z,8.29
2024-05-09T00:46:38.924Z,8.24
2024-05-09T00:49:10.586Z,8.18
2024-05-09T00:51:40.701Z,8.13
2024-05-09T00:54:12.459Z,8.07
2024-05-09T00:56:42.690Z,8.01
2024-05-09T00:59:14.294Z,7.92
2024-05-09T01:01:44.695Z,7.85
2024-05-09T01:04:16.839Z,7.77
2024-05-09T01:06:47.975Z,7.71
2024-05-09T01:09:19.209Z,7.66
2024-05-09T01:11:49.659Z,7.62
2024-05-09T01:14:21.337Z,7.57
2024-05-09T01:16:51.692Z,7.56
2024-05-09T01:19:28.881Z,7.54
2024-05-09T01:22:00.675Z,7.50
2024-05-09T01:24:30.818Z,7.47
2024-05-09T01:27:02.641Z,7.44
2024-05-09T01:29:32.814Z,7.40
2024-05-09T01:32:05.142Z,7.35
2024-05-09T01:34:35.459Z,7.31
2024-05-09T01:37:06.819Z,7.27
2024-05-09T01:39:37.027Z,7.22
2024-05-09T01:42:08.888Z,7.18
2024-05-09T01:44:39.207Z,7.16
2024-05-09T01:47:10.908Z,7.12
2024-05-09T01:49:41.620Z,7.08
2024-05-09T01:52:13.157Z,7.05
2024-05-09T01:54:43.487Z,7.00
2024-05-09T01:57:14.837Z,6.97
2024-05-09T01:59:45.368Z,6.95
2024-05-09T02:02:17.259Z,6.95
2024-05-09T02:04:48.251Z,6.94
2024-05-09T02:07:19.804Z,6.92
2024-05-09T02:09:53.718Z,6.88
2024-05-09T02:12:25.400Z,6.83
2024-05-09T02:14:55.795Z,6.79
2024-05-09T02:17:27.854Z,6.75
2024-05-09T02:19:58.166Z,6.70
2024-05-09T02:22:29.848Z,6.65
2024-05-09T02:25:00.163Z,6.61
2024-05-09T02:27:31.411Z,6.57
2024-05-09T02:30:01.753Z,6.54
2024-05-09T02:32:33.716Z,6.51
2024-05-09T02:35:04.545Z,6.46
2024-05-09T02:37:35.882Z,6.40
2024-05-09T02:40:09.153Z,6.36
2024-05-09T02:42:42.875Z,6.33
2024-05-09T02:45:13.215Z,6.31
2024-05-09T02:47:44.721Z,6.27
2024-05-09T02:50:19.433Z,6.24
2024-05-09T02:52:58.547Z,6.21
2024-05-09T02:55:28.833Z,6.19
2024-05-09T02:58:00.809Z,6.16
2024-05-09T03:00:38.359Z,6.14
2024-05-09T03:03:14.983Z,6.12
2024-05-09T03:05:49.257Z,6.09
2024-05-09T03:08:19.862Z,6.06
2024-05-09T03:10:51.408Z,6.04
2024-05-09T03:13:22.194Z,6.02
2024-05-09T03:15:53.501Z,5.98
2024-05-09T03:18:23.826Z,5.94
2024-05-09T03:20:55.346Z,5.94
2024-05-09T03:23:25.820Z,5.95
2024-05-09T03:25:57.626Z,5.95
2024-05-09T03:28:27.742Z,5.98
2024-05-09T03:30:59.282Z,5.99
2024-05-09T03:33:29.652Z,6.01
2024-05-09T03:36:01.563Z,6.03
2024-05-09T03:38:37.226Z,6.05
2024-05-09T03:41:09.382Z,6.08
2024-05-09T03:43:39.806Z,6.13
2024-05-09T03:46:11.454Z,6.18
2024-05-09T03:48:41.738Z,6.24
2024-05-09T03:51:13.652Z,6.31
2024-05-09T03:53:44.359Z,6.40
2024-05-09T03:56:16.087Z,6.50
2024-05-09T03:58:46.532Z,6.59
2024-05-09T04:01:18.160Z,6.70
2024-05-09T04:03:48.675Z,6.82
2024-05-09T04:06:24.493Z,6.95
2024-05-09T04:08:55.841Z,7.10
2024-05-09T04:11:26.156Z,7.25
2024-05-09T04:13:57.749Z,7.41
2024-05-09T04:16:28.565Z,7.56
2024-05-09T04:19:00.043Z,7.72
2024-05-09T04:21:30.238Z,7.86
2024-05-09T04:24:01.683Z,8.00
2024-05-09T04:26:32.313Z,8.15
2024-05-09T04:29:03.784Z,8.30
2024-05-09T04:31:36.917Z,8.46
2024-05-09T04:34:08.664Z,8.60
2024-05-09T04:36:41.629Z,8.76
2024-05-09T04:39:13.762Z,8.90
2024-05-09T04:41:43.991Z,9.08
2024-05-09T04:44:15.462Z,9.27
2024-05-09T04:46:47.446Z,9.46
2024-05-09T04:49:18.924Z,9.65
2024-05-09T04:51:49.687Z,9.83
2024-05-09T04:54:30.251Z,10.02
2024-05-09T04:57:07.951Z,10.22
2024-05-09T04:59:38.396Z,10.38
2024-05-09T05:02:10.002Z,10.52
2024-05-09T05:04:40.705Z,10.67
2024-05-09T05:07:12.315Z,10.81
2024-05-09T05:09:42.551Z,10.94
2024-05-09T05:12:32.858Z,11.08
2024-05-09T05:15:04.980Z,11.22
2024-05-09T05:17:35.430Z,11.34
2024-05-09T05:20:08.755Z,11.49
2024-05-09T05:22:43.680Z,11.60
2024-05-09T05:25:14.077Z,11.70
2024-05-09T05:27:45.614Z,11.80
2024-05-09T05:30:21.268Z,11.91
2024-05-09T05:32:57.164Z,12.07
2024-05-09T05:35:27.399Z,12.20
2024-05-09T05:37:59.222Z,12.35
2024-05-09T05:40:36.319Z,12.50
2024-05-09T05:43:15.894Z,12.65
2024-05-09T05:45:47.392Z,12.83
2024-05-09T05:48:18.197Z,12.96
2024-05-09T05:50:50.204Z,13.09
2024-05-09T05:53:20.555Z,13.21
2024-05-09T05:55:52.346Z,13.31
2024-05-09T05:58:22.674Z,13.41
2024-05-09T06:00:54.372Z,13.51
2024-05-09T06:03:24.804Z,13.64
2024-05-09T06:05:56.813Z,13.78
2024-05-09T06:08:30.190Z,13.80
2024-05-09T06:11:02.978Z,13.83
2024-05-09T06:13:33.243Z,13.90
2024-05-09T06:16:05.700Z,14.02
2024-05-09T06:18:36.046Z,14.19
2024-05-09T06:21:07.936Z,14.33
2024-05-09T06:23:46.038Z,14.41
2024-05-09T06:26:17.684Z,14.50
2024-05-09T06:28:48.021Z,14.59
2024-05-09T06:31:19.519Z,14.69
2024-05-09T06:33:49.899Z,14.76
2024-05-09T06:36:21.603Z,14.77
2024-05-09T06:38:51.823Z,14.83
2024-05-09T06:41:23.421Z,14.94
2024-05-09T06:43:53.666Z,15.07
2024-05-09T06:46:26.182Z,15.23
2024-05-09T06:48:57.396Z,15.34
2024-05-09T06:51:29.382Z,15.47
2024-05-09T06:53:59.602Z,15.56
2024-05-09T06:56:31.229Z,15.67
2024-05-09T06:59:02.650Z,15.80
2024-05-09T07:01:34.265Z,15.95
2024-05-09T07:04:05.118Z,16.08
2024-05-09T07:06:36.767Z,16.25
2024-05-09T07:09:06.880Z,16.45
2024-05-09T07:11:38.456Z,16.57
2024-05-09T07:14:08.937Z,16.66
2024-05-09T07:16:40.610Z,16.72
2024-05-09T07:19:11.494Z,16.78
2024-05-09T07:21:43.209Z,16.80
2024-05-09T07:24:13.225Z,16.80
2024-05-09T07:26:45.119Z,16.85
2024-05-09T07:29:15.347Z,16.82
2024-05-09T07:31:46.952Z,16.84
2024-05-09T07:34:17.827Z,16.87
2024-05-09T07:36:49.756Z,16.82
2024-05-09T07:39:20.812Z,16.83
2024-05-09T07:41:52.252Z,16.88
2024-05-09T07:44:22.526Z,16.90
2024-05-09T07:48:13.741Z,16.94
2024-05-09T07:51:32.565Z,17.08
2024-05-09T07:53:33.877Z,17.31
2024-05-09T07:55:31.161Z,17.38
2024-05-09T07:58:01.498Z,17.41
2024-05-09T08:00:33.881Z,17.47
2024-05-09T08:03:04.481Z,17.52
2024-05-09T08:05:38.186Z,17.63
2024-05-09T08:08:08.910Z,17.75
2024-05-09T08:10:40.380Z,17.83
2024-05-09T08:13:10.792Z,17.94
2024-05-09T08:15:42.598Z,18.01
2024-05-09T08:18:13.185Z,17.98
2024-05-09T08:20:48.206Z,17.96
2024-05-09T08:23:20.696Z,18.03
2024-05-09T08:25:51.204Z,18.07
2024-05-09T08:28:22.833Z,18.06
2024-05-09T08:30:53.291Z,17.99
2024-05-09T08:33:25.296Z,17.93
2024-05-09T08:35:55.781Z,17.93
2024-05-09T08:38:27.332Z,17.97
2024-05-09T08:40:57.616Z,18.06
2024-05-09T08:43:29.163Z,18.17
2024-05-09T08:45:59.982Z,18.22
2024-05-09T08:48:31.523Z,18.26
2024-05-09T08:51:02.137Z,18.32
2024-05-09T08:53:33.987Z,18.38
2024-05-09T08:56:04.745Z,18.49
2024-05-09T08:58:36.916Z,18.60
2024-05-09T09:01:07.369Z,18.67
2024-05-09T09:03:39.371Z,18.73
2024-05-09T09:06:11.883Z,18.78
2024-05-09T09:08:43.830Z,18.82
2024-05-09T09:11:14.011Z,18.81
2024-05-09T09:13:45.908Z,18.83
2024-05-09T09:16:17.452Z,18.93
2024-05-09T09:18:50.147Z,18.98
2024-05-09T09:21:20.461Z,18.96
2024-05-09T09:23:52.513Z,18.98
2024-05-09T09:26:23.049Z,19.00
2024-05-09T09:28:54.821Z,19.04
2024-05-09T09:31:25.097Z,19.07
2024-05-09T09:33:57.235Z,19.11
2024-05-09T09:36:28.457Z,19.16
2024-05-09T09:38:59.797Z,19.20
2024-05-09T09:41:30.938Z,19.30
2024-05-09T09:44:02.608Z,19.42
2024-05-09T09:46:32.749Z,19.56
2024-05-09T09:49:04.627Z,19.67
2024-05-09T09:51:34.919Z,19.76
2024-05-09T09:54:06.738Z,19.73
2024-05-09T09:56:37.688Z,19.74
2024-05-09T09:59:09.551Z,19.74
2024-05-09T10:01:41.181Z,19.74
2024-05-09T10:04:15.835Z,19.80
2024-05-09T10:06:53.270Z,19.89
2024-05-09T10:09:24.866Z,19.98
2024-05-09T10:11:59.967Z,19.95
2024-05-09T10:14:39.796Z,19.88
2024-05-09T10:17:11.363Z,19.69
2024-05-09T10:22:50.182Z,19.51
2024-05-09T10:25:23.550Z,19.57
2024-05-09T10:27:56.687Z,19.68
2024-05-09T10:30:34.160Z,19.79
2024-05-09T10:33:11.251Z,19.87
2024-05-09T10:35:51.524Z,19.95
2024-05-09T10:38:22.946Z,20.10
2024-05-09T10:40:57.053Z,20.25
2024-05-09T10:43:28.878Z,20.37
2024-05-09T10:45:59.020Z,20.44
2024-05-09T10:48:30.908Z,20.50
2024-05-09T10:51:01.185Z,20.59
2024-05-09T10:53:32.631Z,20.67
2024-05-09T10:56:02.887Z,20.73
2024-05-09T10:58:34.314Z,20.75
2024-05-09T11:01:07.039Z,20.77
2024-05-09T11:03:39.908Z,20.81
2024-05-09T11:06:11.408Z,20.89
2024-05-09T11:08:43.391Z,20.97
2024-05-09T11:11:13.713Z,20.97
2024-05-09T11:13:45.161Z,20.96
2024-05-09T11:16:20.155Z,20.93
2024-05-09T11:18:58.831Z,20.95
2024-05-09T11:21:31.008Z,21.04
2024-05-09T11:24:01.204Z,21.19
2024-05-09T11:26:32.961Z,21.31
2024-05-09T11:29:03.181Z,21.30
2024-05-09T11:31:47.999Z,21.35
2024-05-09T11:34:20.046Z,21.48
2024-05-09T11:36:50.412Z,21.61
2024-05-09T11:39:21.998Z,21.71
2024-05-09T11:41:52.106Z,21.76
2024-05-09T11:44:23.983Z,21.84
2024-05-09T11:46:54.607Z,21.93
2024-05-09T11:49:27.013Z,22.06
2024-05-09T11:51:57.381Z,22.24
2024-05-09T11:54:29.076Z,22.39
2024-05-09T11:56:59.175Z,22.48
2024-05-09T11:59:31.036Z,22.57
2024-05-09T12:02:01.310Z,22.63
2024-05-09T12:04:33.322Z,22.69
2024-05-09T12:07:04.091Z,22.71
2024-05-09T12:09:35.764Z,22.75
2024-05-09T12:12:06.244Z,22.82
2024-05-09T12:14:37.783Z,22.80
2024-05-09T12:17:07.941Z,22.71
2024-05-09T12:19:39.698Z,22.55
2024-05-09T12:22:10.070Z,22.39
2024-05-09T12:24:42.032Z,22.34
2024-05-09T12:27:12.175Z,22.42
2024-05-09T12:29:43.833Z,22.52
2024-05-09T12:32:13.977Z,22.51
2024-05-09T12:34:45.660Z,22.46
2024-05-09T12:37:15.806Z,22.44
2024-05-09T12:39:47.620Z,22.44
2024-05-09T12:42:26.569Z,22.59
2024-05-09T12:45:01.231Z,22.69
2024-05-09T12:47:31.627Z,22.76
2024-05-09T12:50:04.934Z,22.92
2024-05-09T12:52:35.276Z,23.02
2024-05-09T12:55:07.280Z,23.07
2024-05-09T12:57:37.756Z,23.11
2024-05-09T13:00:20.212Z,23.03
2024-05-09T13:02:56.061Z,22.81
2024-05-09T13:05:26.717Z,22.58
2024-05-09T13:07:58.315Z,22.36
2024-05-09T13:10:32.406Z,22.26
2024-05-09T13:13:05.430Z,22.06
2024-05-09T13:15:37.075Z,21.96
2024-05-09T13:18:08.815Z,21.87
2024-05-09T13:20:39.160Z,21.83
2024-05-09T13:23:10.601Z,21.83
2024-05-09T13:25:40.812Z,21.86
2024-05-09T13:28:12.281Z,21.87
2024-05-09T13:30:42.801Z,21.95
2024-05-09T13:33:14.845Z,22.08
2024-05-09T13:35:49.208Z,22.14
2024-05-09T13:38:22.543Z,22.18
2024-05-09T13:40:53.405Z,22.15
2024-05-09T13:43:25.680Z,22.11
2024-05-09T13:45:57.449Z,22.09
2024-05-09T13:48:29.113Z,22.03
2024-05-09T13:50:59.623Z,22.00
2024-05-09T13:53:30.870Z,21.99
2024-05-09T13:56:01.195Z,21.98
2024-05-09T13:58:32.463Z,21.85
2024-05-09T14:01:02.967Z,21.77
2024-05-09T14:03:34.736Z,21.72
2024-05-09T14:06:07.085Z,21.65
2024-05-09T14:08:39.471Z,21.51
2024-05-09T14:11:10.054Z,21.39
2024-05-09T14:13:41.349Z,21.37
2024-05-09T14:16:11.804Z,21.34
2024-05-09T14:18:43.165Z,21.23
2024-05-09T14:21:13.445Z,21.08
2024-05-09T14:23:44.665Z,20.91
2024-05-09T14:26:14.914Z,20.67
2024-05-09T14:28:46.472Z,20.48
2024-05-09T14:31:17.035Z,20.32
2024-05-09T14:33:48.820Z,20.20
2024-05-09T14:36:19.277Z,20.06
2024-05-09T14:38:50.723Z,20.01
2024-05-09T14:41:20.854Z,19.98
2024-05-09T14:43:52.408Z,20.01
2024-05-09T14:46:22.945Z,20.07
2024-05-09T14:48:55.435Z,20.16
2024-05-09T14:51:25.942Z,20.22
2024-05-09T14:53:57.910Z,20.23
2024-05-09T14:56:28.322Z,20.25
2024-05-09T14:59:00.178Z,20.26
2024-05-09T15:01:31.164Z,20.23
2024-05-09T15:04:03.166Z,20.19
2024-05-09T15:06:33.727Z,20.15
2024-05-09T15:09:06.660Z,20.13
2024-05-09T15:11:36.638Z,20.07
2024-05-09T15:14:09.103Z,19.97
2024-05-09T15:16:39.514Z,19.92
2024-05-09T15:19:11.593Z,19.88
2024-05-09T15:21:41.831Z,19.85
2024-05-09T15:24:13.558Z,19.82
2024-05-09T15:26:44.008Z,19.79
2024-05-09T15:29:15.549Z,19.78
2024-05-09T15:31:45.972Z,19.71
2024-05-09T15:34:17.549Z,19.65
2024-05-09T15:36:51.335Z,19.60
2024-05-09T15:39:25.338Z,19.53
2024-05-09T15:41:56.682Z,19.48
2024-05-09T15:44:28.244Z,19.42
2024-05-09T15:46:58.355Z,19.39
2024-05-09T15:49:30.677Z,19.36
2024-05-09T15:52:01.083Z,19.35
2024-05-09T15:54:32.733Z,19.34
2024-05-09T15:57:02.818Z,19.30
2024-05-09T15:59:35.058Z,19.24
2024-05-09T16:02:06.086Z,19.18
2024-05-09T16:04:38.177Z,19.13
2024-05-09T16:07:08.393Z,19.11
2024-05-09T16:09:40.435Z,19.06
2024-05-09T16:12:10.498Z,19.02
2024-05-09T16:14:42.259Z,19.00
2024-05-09T16:17:12.323Z,19.00
2024-05-09T16:19:43.934Z,18.99
2024-05-09T16:22:14.127Z,18.95
2024-05-09T16:24:46.285Z,18.89
2024-05-09T16:27:16.428Z,18.84
2024-05-09T16:29:49.058Z,18.79
2024-05-09T16:32:19.283Z,18.72
2024-05-09T16:34:51.275Z,18.66
2024-05-09T16:37:21.590Z,18.59
2024-05-09T16:39:53.292Z,18.52
2024-05-09T16:42:23.502Z,18.47
2024-05-09T16:44:54.948Z,18.43
2024-05-09T16:47:25.168Z,18.36
2024-05-09T16:49:57.231Z,18.28
2024-05-09T16:52:27.354Z,18.21
2024-05-09T16:54:58.949Z,18.14
2024-05-09T16:57:29.243Z,18.06
2024-05-09T17:00:00.685Z,18.00
2024-05-09T17:02:31.417Z,17.94
2024-05-09T17:05:03.299Z,17.88
2024-05-09T17:07:33.605Z,17.83
2024-05-09T17:10:10.217Z,17.77
2024-05-09T17:12:46.865Z,17.72
2024-05-09T17:15:17.984Z,17.65
2024-05-09T17:17:49.889Z,17.57
2024-05-09T17:20:29.349Z,17.49
2024-05-09T17:23:13.791Z,17.39
2024-05-09T17:25:45.946Z,17.30
2024-05-09T17:28:16.364Z,17.20
2024-05-09T17:30:48.802Z,17.09
2024-05-09T17:33:19.435Z,16.99
2024-05-09T17:35:51.844Z,16.90
2024-05-09T17:38:25.319Z,16.78
2024-05-09T17:40:57.107Z,16.67
2024-05-09T17:43:28.464Z,16.57
2024-05-09T17:46:00.486Z,16.46
2024-05-09T17:48:30.792Z,16.36
2024-05-09T17:51:02.614Z,16.26
2024-05-09T17:53:32.772Z,16.16
2024-05-09T17:56:04.836Z,16.06
2024-05-09T17:58:34.896Z,15.96
2024-05-09T18:01:06.743Z,15.86
2024-05-09T18:03:37.470Z,15.75
2024-05-09T18:06:09.350Z,15.66
2024-05-09T18:08:39.328Z,15.54
2024-05-09T18:11:11.409Z,15.43
2024-05-09T18:13:41.513Z,15.31
2024-05-09T18:16:13.811Z,15.18
2024-05-09T18:18:44.051Z,15.06
2024-05-09T18:21:16.386Z,14.93
2024-05-09T18:23:46.810Z,14.80
2024-05-09T18:26:18.360Z,14.67
2024-05-09T18:28:48.801Z,14.55
2024-05-09T18:31:20.391Z,14.43
2024-05-09T18:33:50.955Z,14.31
2024-05-09T18:36:22.524Z,14.19
2024-05-09T18:38:52.846Z,14.09
2024-05-09T18:41:24.496Z,13.97
2024-05-09T18:43:55.259Z,13.84
2024-05-09T18:46:26.864Z,13.71
2024-05-09T18:48:58.009Z,13.58
2024-05-09T18:51:29.784Z,13.44
2024-05-09T18:53:59.911Z,13.29
2024-05-09T18:56:31.561Z,13.13
2024-05-09T18:59:01.896Z,12.95
2024-05-09T19:01:33.773Z,12.78
2024-05-09T19:04:04.810Z,12.64
2024-05-09T19:06:36.705Z,12.49
2024-05-09T19:09:07.388Z,12.38
2024-05-09T19:11:40.092Z,12.28
2024-05-09T19:14:10.515Z,12.18
2024-05-09T19:16:42.042Z,12.10
2024-05-09T19:19:13.886Z,12.01
2024-05-09T19:21:45.584Z,11.91
2024-05-09T19:24:17.258Z,11.81
2024-05-09T19:26:49.499Z,11.71
2024-05-09T19:29:19.804Z,11.60
2024-05-09T19:31:51.631Z,11.50
2024-05-09T19:34:21.907Z,11.42
2024-05-09T19:36:53.278Z,11.35
2024-05-09T19:39:24.074Z,11.28
2024-05-09T19:41:55.412Z,11.20
2024-05-09T19:44:25.840Z,11.12
2024-05-09T19:46:57.391Z,11.02
2024-05-09T19:49:27.805Z,10.91
2024-05-09T19:51:59.324Z,10.81
2024-05-09T19:54:29.713Z,10.71
2024-05-09T19:57:01.044Z,10.60
2024-05-09T19:59:31.892Z,10.51
2024-05-09T20:02:03.431Z,10.43
2024-05-09T20:04:34.236Z,10.35
2024-05-09T20:07:05.893Z,10.28
2024-05-09T20:09:36.191Z,10.20
2024-05-09T20:12:09.366Z,10.12
2024-05-09T20:14:39.561Z,10.05
2024-05-09T20:17:10.907Z,9.98
2024-05-09T20:19:45.106Z,9.93
2024-05-09T20:22:16.810Z,9.91
2024-05-09T20:24:47.330Z,9.87
2024-05-09T20:27:18.771Z,9.83
2024-05-09T20:29:48.978Z,9.79
2024-05-09T20:32:20.326Z,9.74
2024-05-09T20:34:51.761Z,9.68
2024-05-09T20:37:23.425Z,9.62
2024-05-09T20:39:54.183Z,9.57
2024-05-09T20:42:25.715Z,9.52
2024-05-09T20:44:56.035Z,9.45
2024-05-09T20:47:27.619Z,9.37
2024-05-09T20:49:58.157Z,9.30
2024-05-09T20:52:29.777Z,9.24
2024-05-09T20:55:00.272Z,9.19
2024-05-09T20:57:32.270Z,9.13
2024-05-09T21:00:03.399Z,9.05
2024-05-09T21:02:38.413Z,8.95
2024-05-09T21:05:09.830Z,8.92
2024-05-09T21:07:41.449Z,8.87
2024-05-09T21:10:15.900Z,8.82
2024-05-09T21:12:54.350Z,8.76
2024-05-09T21:15:24.504Z,8.70
2024-05-09T21:17:56.429Z,8.64
2024-05-09T21:23:01.612Z,8.55
2024-05-09T21:25:32.413Z,8.51
2024-05-09T21:28:04.644Z,8.47
2024-05-09T21:30:41.453Z,8.42
2024-05-09T21:33:15.640Z,8.36
2024-05-09T21:35:46.069Z,8.29
2024-05-09T21:38:17.590Z,8.23
2024-05-09T21:40:47.975Z,8.16
2024-05-09T21:43:19.801Z,8.11
2024-05-09T21:45:50.414Z,8.08
2024-05-09T21:48:21.882Z,8.06
2024-05-09T21:50:52.584Z,8.02
2024-05-09T21:53:24.441Z,7.97
2024-05-09T21:55:54.674Z,7.93
2024-05-09T21:58:26.793Z,7.88
2024-05-09T22:00:57.426Z,7.86
2024-05-09T22:03:29.210Z,7.85
2024-05-09T22:05:59.656Z,7.82
2024-05-09T22:08:31.304Z,7.80
2024-05-09T22:11:01.501Z,7.79
2024-05-09T22:13:33.179Z,7.76
2024-05-09T22:16:06.231Z,7.73
2024-05-09T22:18:37.951Z,7.69
2024-05-09T22:21:08.456Z,7.64
2024-05-09T22:23:39.907Z,7.59
2024-05-09T22:26:10.338Z,7.52
2024-05-09T22:28:41.580Z,7.49
2024-05-09T22:31:12.123Z,7.45
2024-05-09T22:33:46.383Z,7.40
2024-05-09T22:36:19.612Z,7.35
2024-05-09T22:38:49.733Z,7.31
2024-05-09T22:41:21.389Z,7.30
2024-05-09T22:43:51.429Z,7.27
2024-05-09T22:46:23.206Z,7.26
2024-05-09T22:48:53.485Z,7.25
2024-05-09T22:51:25.142Z,7.24
2024-05-09T22:53:55.373Z,7.22
2024-05-09T22:56:27.596Z,7.18
2024-05-09T22:58:57.852Z,7.13
2024-05-09T23:01:29.598Z,7.05
2024-05-09T23:04:00.135Z,6.97
2024-05-09T23:06:32.165Z,6.89
2024-05-09T23:09:02.331Z,6.81
2024-05-09T23:11:33.953Z,6.75
2024-05-09T23:14:04.721Z,6.69
2024-05-09T23:16:36.374Z,6.64
2024-05-09T23:19:06.966Z,6.61
2024-05-09T23:21:40.473Z,6.57
2024-05-09T23:24:10.717Z,6.54
2024-05-09T23:26:43.436Z,6.50
2024-05-09T23:29:13.777Z,6.42
2024-05-09T23:31:45.073Z,6.36
2024-05-09T23:34:15.425Z,6.33
2024-05-09T23:36:47.166Z,6.32
2024-05-09T23:39:18.564Z,6.34
2024-05-09T23:41:49.948Z,6.35
2024-05-09T23:44:20.276Z,6.35
2024-05-09T23:46:51.986Z,6.34
2024-05-09T23:49:22.645Z,6.34
2024-05-09T23:51:54.483Z,6.33
2024-05-09T23:54:24.762Z,6.32
2024-05-09T23:56:56.616Z,6.32
2024-05-09T23:59:26.848Z,6.33
